AirNav   Pilot Hours Calculator
 
 1378 users online  

C08 Silver West Airport
Westcliffe, Colorado, USA

GOING TO WESTCLIFFE?


FAA INFORMATION EFFECTIVE 25 MARCH 2021

Location

FAA Identifier: C08
Lat/Long: 38-00-47.8000N 105-22-27.3800W
38-00.796667N 105-22.456333W
38.0132778,-105.3742722
(estimated)
Elevation: 8290 ft. / 2527 m (estimated)
Variation: 11E (1985)
From city: 9 miles SE of WESTCLIFFE, CO
Time zone: UTC -6 (UTC -7 during Standard Time)
Zip code: 81252

Airport Operations

Airport use: Open to the public
Activation date: 04/1973
Control tower: no
ARTCC: DENVER CENTER
FSS: DENVER FLIGHT SERVICE STATION
NOTAMs facility: DEN (NOTAM-D service available)
Attendance: UNATNDD
Wind indicator: yes
Segmented circle: yes

Airport Communications

CTAF: 122.9

Airport Services

Fuel available: 100LL
24 HR SELF SERVE FUEL.
Parking: tiedowns
Airframe service: NONE
Powerplant service: NONE
Bottled oxygen: NONE
Bulk oxygen: NONE

Runway Information

Runway 13/31

Dimensions: 6954 x 55 ft. / 2120 x 17 m
Surface: asphalt, in good condition
HAS VARYING TERRAIN HEIGHTS FROM -5 TO +12 FT ALONG FULL LENGTH OF RY INSIDE OF PRIMARY SURFACE.
RUNWAY 13  RUNWAY 31
Latitude: 38-01.282500N38-00.310833N
Longitude: 105-22.840000W105-22.072667W
Elevation: 8238.0 ft.8274.0 ft.
Traffic pattern: rightleft
Markings: basic, in good conditionbasic, in good condition
Touchdown point: yes, no lightsyes, no lights
Obstructions: none10 ft. gnd, 201 ft. from runway
HAS +12 FT TERRAIN 120 FT FM THLD 0B.

Airport Ownership and Management from official FAA records

Ownership: Publicly-owned
Owner: CUSTER COUNTY, COLORADO
360 CR 310, P.O. BOX 150
WESTCLIFFE, CO 81252
Phone 719-783-2695
Manager: ROBERT JOLEY
P.O. BOX 150
WESTCLIFFE, CO 81252
Phone 719-783-2286

Airport Operational Statistics

Aircraft based on the field: 25
Single engine airplanes: 23
Jet airplanes: 1
Gliders airplanes: 1
  • FREQUENT GLIDER USE.
    
Aircraft operations: avg 89/week *
58% local general aviation
39% transient general aviation
4% military
* for 12-month period ending 31 December 2017

Additional Remarks

RY 13/31 HAS +15 FT HWY 120 FT WEST OF & PARALLEL TO CNTRLN FULL LENGTH, +4 FT FENCE 100 FT WEST OF & PARALLEL TO CNTRLN FULL LENGTH.
OCCASIONAL DEER & ELK ON RY 13/31.
PUBLIC USE TELEPHONE AND FREE WIFI AVBL.
BE ALERT; INTENSIVE USAF STUDENT TRAINING IN VICINITY OF COLORADO SPRINGS & PUEBLO COLORADO.
FOR CD CTC DENVER ARTCC AT 303-651-4257.

Instrument Procedures

There are no published instrument procedures at C08.

Some nearby airports with instrument procedures:

1V6 - Fremont County Airport (28 nm NE)
4V1 - Spanish Peaks Airfield (34 nm SE)
KALS - San Luis Valley Regional Airport/Bergman Field (42 nm SW)
KMVI - Monte Vista Municipal Airport (43 nm SW)
KPUB - Pueblo Memorial Airport (45 nm E)
 
Loc | Ops | Rwys | IFR | FBO | Links
Com | Nav | Svcs | Stats | Notes

AirBoss

 
Area around C08 (Silver West Airport)
 
Road maps at: MapQuest Bing Google
 
Aerial photo
WARNING: Photo may not be current or correct
Aerial photo of C08 (Silver West Airport)
Photo by David Newcomer
Photo taken 31-Mar-2012
from 13,500' looking northwest.

Do you have a better or more recent aerial photo of Silver West Airport that you would like to share? If so, please send us your photo.

 
Sectional chart

 
Airport distance calculator
Flying to Silver West Airport? Find the distance to fly.

From to C08

Sunrise and sunset
Times for 16-Apr-2021
 Local
(UTC-6)
 Zulu
(UTC)
Morning civil twilight05:5811:58
Sunrise06:2612:26
Sunset19:3701:37
Evening civil twilight20:0402:04

Current date and time
Zulu (UTC)  16-Apr-2021 21:16:30
Local (UTC-6)  16-Apr-2021 15:16:30
 
METAR
K1V6 
28nm NE 
162055Z AUTO 14006KT 10SM BKN025 BKN036 BKN044 05/00 A3011 RMK AO2
KVTP 
32nm S 
162055Z AUTO 10006KT M1/4SM -SN OVC001 A3004 RMK AO2
K04V 
38nm W 
162055Z AUTO 16014G18KT 10SM SCT075 OVC090 07/M07 A2995 RMK AO2
KALS 
42nm SW 
162052Z AUTO 08003G16KT 10SM BKN055 BKN070 07/M08 A2995 RMK AO2 SLP135 T00671083 58006
KPUB 
44nm E 
162053Z AUTO 03017G23KT 10SM SCT043 OVC070 07/M04 A3013 RMK AO2 SLP205 T00671044 53001
KANK 
45nm NW 
162055Z AUTO 13014G20KT 10SM SCT100 06/M06 A3009 RMK AO1 T00631060
KFCS 
49nm NE 
162058Z AUTO 36009KT 10SM FEW038 BKN049 OVC075 03/M04 A3010 RMK AO2 SLP234 T00261044 53002 $
KRCV 
50nm W 
162055Z AUTO 16005KT 10SM SCT039 BKN047 OVC050 06/M07 A2995 RMK AO2 T00571074
TAF
KALS 
42nm SW 
161730Z 1618/1718 10010KT P6SM VCSH BKN050 FM162200 12012G22KT P6SM FEW030 BKN050 FM170500 12012KT P6SM VCSH BKN030
KPUB 
44nm E 
161730Z 1618/1718 02015G25KT P6SM SCT050 OVC080 FM162300 05012G25KT P6SM FEW070 BKN100 FM170300 03010KT P6SM SCT030 OVC060 FM170600 VRB06KT P6SM VCSH SCT010 OVC030 FM171500 04012KT P6SM VCSH BKN020
KFCS 
49nm NE 
161310Z 1613/1719 35013KT 9999 FEW050 BKN060 QNH3000INS BECMG 1616/1617 01010KT 9999 BKN040 510409 QNH3007INS BECMG 1622/1623 01010G20KT 9999 BKN040 QNH3008INS BECMG 1709/1710 VRB06KT 9999 SCT024 QNH3019INS TX04/1621Z TNM04/1710Z
NOTAMs
Click for the latest NOTAMs
NOTAMs are issued by the DoD/FAA and will open in a separate window not controlled by AirNav.

 

 
 

FBO, Fuel Providers, and Aircraft Ground Support

  
 Business Name 
 
 Contact 
 
 Services / Description 
 
Fuel Prices
 
Comments
  
 SilverWest/Custer County Airport
122.90
719-783-2695
[web site]
[email]
Silver West Airport is located in the beautiful rocky mountains. At the base of both the Sangre de Cristo Mountain Range and the Wet Mountian Range.

More info about SilverWest/Custer County Airport
Phillips 66
100LL
SS $3.75 
 Updated 11-Feb-2021
 
   write
SS=Self service
Update Fuel Prices
 

Would you like to see your business listed on this page?

 If your business provides an interesting product or service to pilots, flight crews, aircraft, or users of the Silver West Airport, you should consider listing it here.  To start the listing process, click on the button below
 
Add a business
 

Other Pages about Silver West Airport

silverwestairport.custercountygov.com
 
Update a link
 
Copyright © AirNav, LLC. All rights reserved. Privacy Policy  Contact